createdAt,value
2023-03-23T15:59:11.228Z,1.42
2023-03-23T16:01:40.214Z,1.02
2023-03-23T16:04:09.451Z,1.10
2023-03-23T16:06:37.988Z,1.20
2023-03-23T16:09:06.385Z,1.60
2023-03-23T16:11:35.745Z,1.30
2023-03-23T16:14:03.574Z,1.13
2023-03-23T16:16:33.126Z,1.13
2023-03-23T16:19:01.452Z,1.13
2023-03-23T16:21:30.151Z,1.08
2023-03-23T16:23:58.737Z,1.23
2023-03-23T16:26:26.608Z,1.00
2023-03-23T16:32:24.156Z,0.85
2023-03-23T16:34:51.946Z,1.27
2023-03-23T16:37:19.672Z,1.08
2023-03-23T16:39:47.784Z,1.10
2023-03-23T16:42:15.625Z,1.00
2023-03-23T16:44:43.393Z,1.50
2023-03-23T16:47:11.165Z,1.52
2023-03-23T16:49:40.288Z,1.55
2023-03-23T16:52:08.106Z,1.33
2023-03-23T16:54:36.058Z,0.98
2023-03-23T16:57:03.853Z,1.65
2023-03-23T16:59:31.868Z,1.63
2023-03-23T17:02:03.501Z,1.33
2023-03-23T17:04:31.861Z,1.42
2023-03-23T17:07:01.043Z,1.42
2023-03-23T17:09:29.108Z,1.48
2023-03-23T17:11:56.952Z,1.60
2023-03-23T17:14:24.887Z,1.50
2023-03-23T17:16:52.991Z,1.45
2023-03-23T17:19:20.738Z,1.33
2023-03-23T17:21:48.747Z,6.93
2023-03-23T17:24:18.127Z,2.58
2023-03-23T17:26:45.923Z,2.40
2023-03-23T17:29:14.226Z,2.47
2023-03-23T17:31:42.272Z,3.17
2023-03-23T17:34:10.020Z,2.42
2023-03-23T17:36:37.795Z,2.03
2023-03-23T17:39:05.862Z,2.13
2023-03-23T17:41:34.949Z,1.77
2023-03-23T17:44:02.845Z,1.50
2023-03-23T17:46:30.625Z,1.45
2023-03-23T17:48:58.614Z,1.48
2023-03-23T17:51:29.012Z,1.13
2023-03-23T17:53:57.313Z,1.05
2023-03-23T17:56:25.339Z,1.15
2023-03-23T17:58:54.423Z,1.48
2023-03-23T18:01:22.502Z,1.35
2023-03-23T18:03:50.342Z,1.55
2023-03-23T18:06:18.421Z,1.73
2023-03-23T18:08:46.167Z,1.45
2023-03-23T18:11:13.960Z,1.40
2023-03-23T18:13:41.720Z,1.75
2023-03-23T18:16:11.545Z,1.10
2023-03-23T18:18:39.407Z,1.50
2023-03-23T18:21:08.463Z,1.50
2023-03-23T18:23:46.196Z,1.15
2023-03-23T18:26:17.898Z,1.58
2023-03-23T18:28:45.719Z,1.48
2023-03-23T18:31:16.012Z,1.75
2023-03-23T18:33:46.680Z,1.27
2023-03-23T18:36:15.141Z,1.02
2023-03-23T18:38:43.071Z,1.70
2023-03-23T18:41:11.657Z,1.73
2023-03-23T18:43:39.445Z,1.70
2023-03-23T18:46:07.983Z,1.55
2023-03-23T18:48:37.611Z,2.47
2023-03-23T18:51:06.201Z,4.20
2023-03-23T18:53:33.981Z,5.75
2023-03-23T18:56:05.487Z,10.13
2023-03-23T18:58:33.746Z,9.07
2023-03-23T19:01:03.224Z,10.15
2023-03-23T19:03:31.315Z,6.60
2023-03-23T19:06:01.200Z,8.02
2023-03-23T19:08:31.145Z,3.58
2023-03-23T19:11:00.040Z,3.40
2023-03-23T19:13:28.334Z,2.50
2023-03-23T19:15:56.178Z,2.70
2023-03-23T19:18:27.310Z,1.75
2023-03-23T19:21:13.419Z,1.70
2023-03-23T19:23:44.212Z,1.65
2023-03-23T19:26:16.768Z,1.30
2023-03-23T19:29:21.470Z,1.55
2023-03-23T19:31:32.560Z,1.05
2023-03-23T19:34:00.566Z,1.55
2023-03-23T19:36:28.734Z,1.90
2023-03-23T19:38:58.467Z,2.25
2023-03-23T19:41:32.461Z,1.67
2023-03-23T19:44:01.325Z,1.90
2023-03-23T19:46:30.386Z,1.27
2023-03-23T19:48:59.324Z,1.60
2023-03-23T19:51:28.518Z,1.33
2023-03-23T19:53:58.289Z,1.60
2023-03-23T19:56:26.427Z,1.60
2023-03-23T19:58:54.272Z,1.50
2023-03-23T20:01:22.370Z,1.80
2023-03-23T20:03:50.133Z,1.60
2023-03-23T20:06:18.329Z,1.92
2023-03-23T20:08:47.614Z,2.03
2023-03-23T20:11:18.021Z,1.73
2023-03-23T20:13:47.035Z,1.50
2023-03-23T20:16:15.099Z,1.35
2023-03-23T20:18:44.724Z,1.63
2023-03-23T20:21:13.793Z,1.48
2023-03-23T20:23:42.745Z,1.40
2023-03-23T20:26:12.364Z,1.70
2023-03-23T20:28:42.610Z,1.75
2023-03-23T20:31:20.914Z,1.75
2023-03-23T20:34:00.876Z,1.60
2023-03-23T20:36:32.221Z,1.80
2023-03-23T20:39:01.467Z,1.95
2023-03-23T20:41:29.496Z,2.75
2023-03-23T20:43:59.712Z,2.10
2023-03-23T20:46:27.726Z,2.33
2023-03-23T20:48:55.730Z,2.00
2023-03-23T20:51:23.522Z,2.75
2023-03-23T20:53:51.394Z,2.97
2023-03-23T20:56:20.162Z,2.47
2023-03-23T20:58:48.307Z,2.55
2023-03-23T21:01:17.506Z,2.60
2023-03-23T21:03:45.536Z,2.38
2023-03-23T21:06:13.345Z,1.73
2023-03-23T21:08:43.887Z,2.55
2023-03-23T21:11:17.393Z,2.30
2023-03-23T21:13:45.638Z,2.40
2023-03-23T21:16:13.659Z,1.90
2023-03-23T21:18:42.915Z,2.08
2023-03-23T21:21:11.967Z,2.53
2023-03-23T21:23:47.137Z,2.90
2023-03-23T21:26:15.953Z,2.55
2023-03-23T21:28:44.110Z,2.70
2023-03-23T21:31:12.380Z,2.80
2023-03-23T21:33:40.248Z,2.60
2023-03-23T21:36:09.691Z,3.10
2023-03-23T21:38:38.327Z,2.65
2023-03-23T21:41:07.651Z,2.33
2023-03-23T21:43:36.083Z,2.55
2023-03-23T21:46:05.485Z,2.28
2023-03-23T21:48:33.856Z,2.50
2023-03-23T21:51:05.608Z,2.03
2023-03-23T21:53:37.151Z,2.15
2023-03-23T21:56:06.208Z,2.63
2023-03-23T21:58:34.399Z,2.20
2023-03-23T22:01:02.698Z,2.50
2023-03-23T22:03:32.720Z,2.53
2023-03-23T22:06:06.647Z,1.90
2023-03-23T22:08:36.350Z,2.80
2023-03-23T22:11:08.126Z,1.98
2023-03-23T22:13:38.714Z,2.42
2023-03-23T22:16:08.541Z,1.92
2023-03-23T22:18:37.833Z,1.80
2023-03-23T22:21:06.083Z,1.63
2023-03-23T22:23:34.141Z,1.80
2023-03-23T22:26:04.181Z,2.00
2023-03-23T22:28:32.248Z,2.13
2023-03-23T22:31:01.579Z,2.03
2023-03-23T22:33:29.545Z,2.00
2023-03-23T22:35:57.382Z,1.90
2023-03-23T22:38:25.519Z,1.88
2023-03-23T22:40:56.713Z,2.50
2023-03-23T22:43:27.220Z,1.70
2023-03-23T22:45:55.359Z,2.05
2023-03-23T22:48:24.155Z,2.05
2023-03-23T22:50:52.281Z,1.60
2023-03-23T22:53:20.645Z,1.60
2023-03-23T22:55:49.864Z,1.33
2023-03-23T22:58:17.946Z,1.73
2023-03-23T23:00:48.110Z,1.73
2023-03-23T23:03:16.687Z,1.70
2023-03-23T23:05:45.159Z,2.10
2023-03-23T23:08:13.817Z,1.95
2023-03-23T23:10:44.785Z,1.80
2023-03-23T23:13:13.629Z,2.10
2023-03-23T23:15:42.682Z,1.70
2023-03-23T23:18:12.410Z,1.60
2023-03-23T23:20:41.054Z,1.95
2023-03-23T23:23:09.259Z,1.80
2023-03-23T23:25:37.752Z,1.88
2023-03-23T23:28:06.455Z,2.25
2023-03-23T23:30:35.004Z,1.60
2023-03-23T23:33:03.405Z,2.00
2023-03-23T23:35:33.093Z,2.15
2023-03-23T23:38:01.130Z,1.52
2023-03-23T23:40:28.890Z,1.65
2023-03-23T23:42:56.679Z,1.55
2023-03-23T23:45:24.451Z,1.88
2023-03-23T23:47:52.459Z,2.03
2023-03-23T23:50:20.245Z,1.83
2023-03-23T23:52:50.901Z,1.80
2023-03-23T23:55:19.700Z,1.98
2023-03-23T23:57:48.814Z,2.13
